createdAt,value
2022-09-28T00:00:47.653Z,99169.28
2022-09-28T00:01:52.143Z,99165.36
2022-09-28T00:02:56.753Z,99165.28
2022-09-28T00:04:01.327Z,99160.55
2022-09-28T00:05:05.672Z,99165.66
2022-09-28T00:06:10.939Z,99156.7
2022-09-28T00:07:15.320Z,99159.05
2022-09-28T00:08:19.567Z,99162.66
2022-09-28T00:09:23.810Z,99156.63
2022-09-28T00:10:28.117Z,99160.72
2022-09-28T00:11:32.376Z,99157.23
2022-09-28T00:12:36.615Z,99156.39
2022-09-28T00:13:40.872Z,99153.39
2022-09-28T00:14:45.169Z,99154.93
2022-09-28T00:15:49.434Z,99148.16
2022-09-28T00:16:53.767Z,99146.3
2022-09-28T00:17:58.024Z,99150.92
2022-09-28T00:19:02.273Z,99152.26
2022-09-28T00:20:06.932Z,99153.51
2022-09-28T00:21:11.176Z,99155.98
2022-09-28T00:22:15.434Z,99155.48
2022-09-28T00:23:19.684Z,99152.17
2022-09-28T00:24:28.356Z,99152.17
2022-09-28T00:25:33.618Z,99153.68
2022-09-28T00:26:37.904Z,99148.74
2022-09-28T00:27:42.126Z,99153.27
2022-09-28T00:28:46.368Z,99148.34
2022-09-28T00:29:50.649Z,99147.41
2022-09-28T00:30:54.908Z,99148.57
2022-09-28T00:31:59.326Z,99153.39
2022-09-28T00:33:03.892Z,99148.89
2022-09-28T00:34:08.170Z,99138.81
2022-09-28T00:35:12.395Z,99138.9
2022-09-28T00:36:16.719Z,99142.3
2022-09-28T00:37:20.964Z,99142.38
2022-09-28T00:38:25.262Z,99139.54
2022-09-28T00:39:29.501Z,99131.28
2022-09-28T00:40:33.879Z,99140.55
2022-09-28T00:41:38.179Z,99132.3
2022-09-28T00:42:42.419Z,99128.7
2022-09-28T00:43:46.655Z,99134.56
2022-09-28T00:44:50.911Z,99138.66
2022-09-28T00:45:55.318Z,99136.31
2022-09-28T00:46:59.740Z,99131.48
2022-09-28T00:48:04.003Z,99135.58
2022-09-28T00:49:08.216Z,99133.84
2022-09-28T00:50:12.451Z,99132.91
2022-09-28T00:51:16.661Z,99137.84
2022-09-28T00:52:20.904Z,99139.39
2022-09-28T00:53:25.296Z,99140.23
2022-09-28T00:54:29.528Z,99132.63
2022-09-28T00:55:33.787Z,99136.22
2022-09-28T00:56:38.004Z,99134.16
2022-09-28T00:57:42.255Z,99135.06
2022-09-28T00:58:46.545Z,99130.33
2022-09-28T00:59:50.753Z,99133
2022-09-28T01:00:55.149Z,99131.17
2022-09-28T01:01:59.694Z,99134.25
2022-09-28T01:03:04.035Z,99134.33
2022-09-28T01:04:08.296Z,99137.09
2022-09-28T01:05:12.574Z,99130.94
2022-09-28T01:06:16.818Z,99135.47
2022-09-28T01:07:21.053Z,99130.41
2022-09-28T01:08:25.390Z,99126.41
2022-09-28T01:09:29.633Z,99133.2
2022-09-28T01:10:33.886Z,99128.67
2022-09-28T01:11:38.104Z,99128.67
2022-09-28T01:12:42.315Z,99129.52
2022-09-28T01:13:46.577Z,99128.17
2022-09-28T01:14:50.802Z,99132.27
2022-09-28T01:15:55.172Z,99132.19
2022-09-28T01:16:59.537Z,99128.91
2022-09-28T01:18:03.788Z,99128.67
2022-09-28T01:19:08.047Z,99122.59
2022-09-28T01:20:13.308Z,99132.59
2022-09-28T01:21:17.533Z,99132.8
2022-09-28T01:22:21.826Z,99131.86
2022-09-28T01:23:26.085Z,99129.59
2022-09-28T01:24:30.328Z,99126.72
2022-09-28T01:25:34.598Z,99133.08
2022-09-28T01:26:38.861Z,99133.41
2022-09-28T01:27:43.119Z,99129.08
2022-09-28T01:28:47.365Z,99126.52
2022-09-28T01:29:51.623Z,99122.59
2022-09-28T01:30:55.853Z,99123.33
2022-09-28T01:32:00.273Z,99118.91
2022-09-28T01:33:04.641Z,99120.89
2022-09-28T01:34:08.905Z,99109.27
2022-09-28T01:35:13.164Z,99112.27
2022-09-28T01:36:17.435Z,99110.75
2022-09-28T01:37:21.700Z,99109.91
2022-09-28T01:38:25.946Z,99107.32
2022-09-28T01:39:30.651Z,99112.67
2022-09-28T01:40:34.998Z,99115.34
2022-09-28T01:41:39.375Z,99115.78
2022-09-28T01:42:43.620Z,99114.44
2022-09-28T01:43:47.854Z,99117.11
2022-09-28T01:44:52.136Z,99110.84
2022-09-28T01:45:56.504Z,99112.17
2022-09-28T01:47:00.873Z,99116.59
2022-09-28T01:48:05.169Z,99121.44
2022-09-28T01:49:09.440Z,99115.17
2022-09-28T01:50:13.729Z,99117.23
2022-09-28T01:51:17.992Z,99115.8
2022-09-28T01:52:22.230Z,99120.74
2022-09-28T01:53:26.494Z,99117.92
2022-09-28T01:54:30.734Z,99118.86
2022-09-28T01:55:34.959Z,99125.22
2022-09-28T01:56:39.295Z,99120.56
2022-09-28T01:57:43.542Z,99119.63
2022-09-28T01:58:47.836Z,99130.53
2022-09-28T01:59:52.043Z,99120.16
2022-09-28T02:00:56.381Z,99122.83
2022-09-28T02:02:00.935Z,99124.25
2022-09-28T02:03:05.319Z,99130.61
2022-09-28T02:04:09.541Z,99129.8
2022-09-28T02:05:13.814Z,99126.28
2022-09-28T02:06:18.087Z,99135.14
2022-09-28T02:07:22.323Z,99128.47
2022-09-28T02:08:26.569Z,99136.97
2022-09-28T02:09:34.802Z,99133.05
2022-09-28T02:10:39.041Z,99136.66
2022-09-28T02:11:43.308Z,99144.58
2022-09-28T02:12:47.595Z,99136.16
2022-09-28T02:13:51.844Z,99145.52
2022-09-28T02:14:56.068Z,99141.91
2022-09-28T02:16:00.516Z,99139.64
2022-09-28T02:17:04.874Z,99149.72
2022-09-28T02:18:09.124Z,99145.72
2022-09-28T02:19:13.382Z,99149.27
2022-09-28T02:20:17.777Z,99148.86
2022-09-28T02:21:22.015Z,99156.44
2022-09-28T02:22:26.316Z,99153.88
2022-09-28T02:23:30.595Z,99155.39
2022-09-28T02:24:34.825Z,99149.96
2022-09-28T02:25:39.048Z,99151.3
2022-09-28T02:26:43.319Z,99154.9
2022-09-28T02:27:49.823Z,99155.91
2022-09-28T02:28:54.045Z,99156
2022-09-28T02:29:58.280Z,99155.19
2022-09-28T02:31:02.592Z,99156.08
2022-09-28T02:32:06.951Z,99157.42
2022-09-28T02:33:11.219Z,99155.19
2022-09-28T02:34:15.459Z,99153.94
2022-09-28T02:35:19.693Z,99157.42
2022-09-28T02:36:23.973Z,99155.67
2022-09-28T02:37:28.214Z,99149.52
2022-09-28T02:38:32.453Z,99151.75
2022-09-28T02:39:36.700Z,99150.42
2022-09-28T02:40:41.115Z,99152.69
2022-09-28T02:41:45.539Z,99148.67
2022-09-28T02:42:49.767Z,99149.52
2022-09-28T02:43:54.035Z,99146.23
2022-09-28T02:44:58.255Z,99148.3
2022-09-28T02:46:02.637Z,99142.95
2022-09-28T02:47:07.056Z,99143.89
2022-09-28T02:48:11.324Z,99143.16
2022-09-28T02:49:23.222Z,99140.05
2022-09-28T02:50:27.813Z,99146.27
2022-09-28T02:51:32.051Z,99145.34
2022-09-28T02:52:36.320Z,99147.41
2022-09-28T02:53:40.569Z,99143.39
2022-09-28T02:54:44.804Z,99149.59
2022-09-28T02:55:49.050Z,99148.25
2022-09-28T02:56:54.316Z,99146.59
2022-09-28T02:57:58.885Z,99148.86
2022-09-28T02:59:03.117Z,99152.87
2022-09-28T03:00:07.624Z,99149.59
2022-09-28T03:01:12.017Z,99147.32
2022-09-28T03:02:16.535Z,99149.44
2022-09-28T03:03:20.881Z,99146.56
2022-09-28T03:04:25.137Z,99145.52
2022-09-28T03:05:29.366Z,99149.92
2022-09-28T03:06:33.611Z,99144.66
2022-09-28T03:07:37.864Z,99143.33
2022-09-28T03:08:42.080Z,99143.33
2022-09-28T03:09:46.312Z,99142.08
2022-09-28T03:10:50.590Z,99136.33
2022-09-28T03:11:54.868Z,99135
2022-09-28T03:12:59.105Z,99133.98
2022-09-28T03:14:03.418Z,99130.81
2022-09-28T03:15:07.663Z,99132.97
2022-09-28T03:16:13.013Z,99135.31
2022-09-28T03:17:17.350Z,99132.56
2022-09-28T03:18:21.609Z,99134.91
2022-09-28T03:19:25.853Z,99130.98
2022-09-28T03:20:30.092Z,99128.84
2022-09-28T03:21:34.376Z,99126.98
2022-09-28T03:22:38.613Z,99128.72
2022-09-28T03:23:42.891Z,99127.06
2022-09-28T03:24:47.142Z,99129.33
2022-09-28T03:25:51.386Z,99128.4
2022-09-28T03:26:55.615Z,99132.09
2022-09-28T03:27:59.860Z,99131.31
2022-09-28T03:29:04.169Z,99129.48
2022-09-28T03:30:08.437Z,99131.39
2022-09-28T03:31:12.883Z,99128.72
2022-09-28T03:32:17.236Z,99125.47
2022-09-28T03:33:21.469Z,99127.3
2022-09-28T03:34:25.762Z,99126.69
2022-09-28T03:35:30.046Z,99127.22
2022-09-28T03:36:34.287Z,99130.2
2022-09-28T03:37:38.514Z,99122.91
2022-09-28T03:38:42.782Z,99121.66
2022-09-28T03:39:47.006Z,99121.66
2022-09-28T03:40:51.410Z,99124.25
2022-09-28T03:41:55.821Z,99127.02
2022-09-28T03:43:00.059Z,99123.52
2022-09-28T03:44:04.336Z,99127.45
2022-09-28T03:45:09.637Z,99126.52
2022-09-28T03:46:14.051Z,99122.39
2022-09-28T03:47:18.408Z,99118.3
2022-09-28T03:48:29.986Z,99122.45
2022-09-28T03:49:36.505Z,99125.53
2022-09-28T03:50:40.724Z,99120.91
2022-09-28T03:51:45.037Z,99126.17
2022-09-28T03:52:49.288Z,99118.8
2022-09-28T03:53:53.564Z,99117.95
2022-09-28T03:54:58.804Z,99120.13
2022-09-28T03:56:03.081Z,99123.73
2022-09-28T03:57:07.385Z,99118.88
2022-09-28T03:58:11.608Z,99126.61
2022-09-28T03:59:17.038Z,99119.84
2022-09-28T04:00:21.434Z,99126.53
2022-09-28T04:01:25.936Z,99126.3
2022-09-28T04:02:30.513Z,99123.63
2022-09-28T04:03:35.066Z,99128.53
2022-09-28T04:04:39.281Z,99129.95
2022-09-28T04:05:43.511Z,99128.03
2022-09-28T04:06:47.771Z,99125.47
2022-09-28T04:07:52.009Z,99128.58
2022-09-28T04:08:56.231Z,99122.01
2022-09-28T04:10:00.515Z,99121.3
2022-09-28T04:11:04.744Z,99127.38
2022-09-28T04:12:08.987Z,99127.08
2022-09-28T04:13:13.331Z,99124.72
2022-09-28T04:14:18.598Z,99128.05
2022-09-28T04:15:22.870Z,99134.77
2022-09-28T04:16:27.265Z,99132.14
2022-09-28T04:17:31.599Z,99132.45
2022-09-28T04:18:41.077Z,99130.28
2022-09-28T04:19:45.320Z,99137.34
2022-09-28T04:20:49.580Z,99132.64
2022-09-28T04:21:53.831Z,99130.28
2022-09-28T04:22:58.150Z,99135.41
2022-09-28T04:24:02.524Z,99133.14
2022-09-28T04:25:06.759Z,99128.8
2022-09-28T04:26:11.019Z,99132.19
2022-09-28T04:27:15.266Z,99128.78
2022-09-28T04:28:19.602Z,99129.31
2022-09-28T04:29:24.063Z,99129.58
2022-09-28T04:30:28.296Z,99132.56
2022-09-28T04:31:32.696Z,99130.67
2022-09-28T04:32:37.073Z,99138.59
2022-09-28T04:33:41.312Z,99131.48
2022-09-28T04:34:45.666Z,99128.89
2022-09-28T04:35:49.912Z,99131.34
2022-09-28T04:36:54.158Z,99128.97
2022-09-28T04:37:58.390Z,99126.27
2022-09-28T04:39:02.662Z,99129.12
2022-09-28T04:40:06.934Z,99123.14
2022-09-28T04:41:11.178Z,99126.92
2022-09-28T04:42:15.406Z,99126.31
2022-09-28T04:43:19.688Z,99126.09
2022-09-28T04:44:23.938Z,99120.91
2022-09-28T04:45:28.435Z,99118.77
2022-09-28T04:46:32.817Z,99116.8
2022-09-28T04:47:37.084Z,99117.9
2022-09-28T04:48:41.345Z,99115.44
2022-09-28T04:49:45.600Z,99111.1
2022-09-28T04:50:49.834Z,99108.29
2022-09-28T04:51:54.082Z,99107.56
2022-09-28T04:52:58.312Z,99104.16
2022-09-28T04:54:02.556Z,99106.61
2022-09-28T04:55:06.798Z,99112.17
2022-09-28T04:56:11.112Z,99101.73
2022-09-28T04:57:15.372Z,99105.87
2022-09-28T04:58:19.610Z,99108.31
2022-09-28T04:59:23.857Z,99107.15
2022-09-28T05:00:28.092Z,99109.09
2022-09-28T05:01:33.557Z,99106.63
2022-09-28T05:02:38.118Z,99110.91
2022-09-28T05:03:42.563Z,99115.94
2022-09-28T05:04:46.807Z,99108.44
2022-09-28T05:05:51.035Z,99113.88
2022-09-28T05:06:55.291Z,99114.58
2022-09-28T05:08:01.794Z,99109.11
2022-09-28T05:09:06.058Z,99115.88
2022-09-28T05:10:10.311Z,99116.5
2022-09-28T05:11:14.550Z,99115.66
2022-09-28T05:12:18.800Z,99120.69
2022-09-28T05:13:23.376Z,99125.27
2022-09-28T05:14:27.695Z,99123.53
2022-09-28T05:15:31.984Z,99124.95
2022-09-28T05:16:36.366Z,99120.33
2022-09-28T05:17:40.776Z,99123.36
2022-09-28T05:18:45.072Z,99123.85
2022-09-28T05:19:49.298Z,99121.67
2022-09-28T05:20:53.555Z,99118.94
2022-09-28T05:21:57.809Z,99127.02
2022-09-28T05:23:02.041Z,99114.17
2022-09-28T05:24:06.277Z,99113.94
2022-09-28T05:25:10.530Z,99117.72
2022-09-28T05:26:14.770Z,99122.17
2022-09-28T05:27:19.019Z,99117.41
2022-09-28T05:28:23.320Z,99112.05
2022-09-28T05:29:32.928Z,99112.17
2022-09-28T05:30:37.212Z,99112.78
2022-09-28T05:31:41.626Z,99116.87
2022-09-28T05:32:45.958Z,99113.8
2022-09-28T05:33:50.266Z,99112.03
2022-09-28T05:34:54.813Z,99121.91
2022-09-28T05:36:02.470Z,99119.84
2022-09-28T05:37:06.732Z,99120.34
2022-09-28T05:38:11.016Z,99117.26
2022-09-28T05:39:15.380Z,99112.84
2022-09-28T05:40:20.112Z,99110.88
2022-09-28T05:41:24.481Z,99117.11
2022-09-28T05:42:28.702Z,99108.28
2022-09-28T05:43:33.002Z,99122.14
2022-09-28T05:44:37.259Z,99115.38
2022-09-28T05:45:41.689Z,99113.62
2022-09-28T05:46:46.067Z,99116.91
2022-09-28T05:47:50.319Z,99123.48
2022-09-28T05:48:54.610Z,99115.45
2022-09-28T05:49:58.842Z,99120.8
2022-09-28T05:51:03.070Z,99113.72
2022-09-28T05:52:07.465Z,99122.66
2022-09-28T05:53:11.769Z,99120.6
2022-09-28T05:54:16.128Z,99128.3
2022-09-28T05:55:20.624Z,99120.45
2022-09-28T05:56:24.896Z,99116.27
2022-09-28T05:57:29.149Z,99120.52
2022-09-28T05:58:33.382Z,99120.84
2022-09-28T05:59:37.659Z,99112.94
2022-09-28T06:00:41.923Z,99115.08
2022-09-28T06:01:46.225Z,99114.06
2022-09-28T06:02:50.653Z,99108.72
2022-09-28T06:03:55.006Z,99113.02
2022-09-28T06:04:59.258Z,99114.77
2022-09-28T06:06:03.498Z,99108.38
2022-09-28T06:07:07.719Z,99112.55
2022-09-28T06:08:11.964Z,99107.58
2022-09-28T06:09:16.253Z,99114.79
2022-09-28T06:10:20.512Z,99109.04
2022-09-28T06:11:24.791Z,99106.69
2022-09-28T06:12:29.088Z,99099.8
2022-09-28T06:13:33.363Z,99099.89
2022-09-28T06:14:37.622Z,99100
2022-09-28T06:15:41.901Z,99094.22
2022-09-28T06:16:46.250Z,99100.91
2022-09-28T06:17:50.642Z,99096.31
2022-09-28T06:18:55.273Z,99101.78
2022-09-28T06:19:59.528Z,99097.33
2022-09-28T06:21:03.758Z,99093.73
2022-09-28T06:22:07.997Z,99087.37
2022-09-28T06:23:12.376Z,99091.78
2022-09-28T06:24:16.920Z,99092.51
2022-09-28T06:25:21.347Z,99092.39
2022-09-28T06:26:25.602Z,99092.31
2022-09-28T06:27:29.860Z,99095.47
2022-09-28T06:28:34.175Z,99089.66
2022-09-28T06:29:38.402Z,99091.38
2022-09-28T06:30:42.737Z,99092.8
2022-09-28T06:31:47.116Z,99098.47
2022-09-28T06:32:51.356Z,99093.2
2022-09-28T06:33:55.663Z,99088.94
2022-09-28T06:34:59.969Z,99083.36
2022-09-28T06:36:04.238Z,99088.3
2022-09-28T06:37:08.521Z,99089.81
2022-09-28T06:38:12.785Z,99092.36
2022-09-28T06:39:17.045Z,99088.84
2022-09-28T06:40:21.430Z,99085.77
2022-09-28T06:41:25.833Z,99094.11
2022-09-28T06:42:30.135Z,99096.63
2022-09-28T06:43:35.537Z,99095.23
2022-09-28T06:44:39.778Z,99092.31
2022-09-28T06:45:44.217Z,99095.04
2022-09-28T06:46:48.604Z,99094.75
2022-09-28T06:47:52.852Z,99093.64
2022-09-28T06:48:57.148Z,99097.62
2022-09-28T06:50:01.370Z,99092.59
2022-09-28T06:51:05.595Z,99094.95
2022-09-28T06:52:09.827Z,99093.41
2022-09-28T06:53:14.051Z,99092.13
2022-09-28T06:54:18.687Z,99098.98
2022-09-28T06:55:22.971Z,99097.23
2022-09-28T06:56:33.252Z,99105.34
2022-09-28T06:57:37.541Z,99101.09
2022-09-28T06:58:41.746Z,99092.19
2022-09-28T06:59:46.139Z,99099.27
2022-09-28T07:00:50.610Z,99091.95
2022-09-28T07:01:55.063Z,99091.55
2022-09-28T07:02:59.390Z,99098.54
2022-09-28T07:04:03.958Z,99101.91
2022-09-28T07:05:08.261Z,99096.83
2022-09-28T07:06:12.516Z,99107.89
2022-09-28T07:07:16.771Z,99104.14
2022-09-28T07:08:21.004Z,99097.9
2022-09-28T07:09:34.481Z,99104.98
2022-09-28T07:10:46.962Z,99093.98
2022-09-28T07:11:51.209Z,99099.81
2022-09-28T07:12:55.551Z,99086
2022-09-28T07:13:59.831Z,99093.63
2022-09-28T07:15:04.203Z,99098.61
2022-09-28T07:16:08.803Z,99098.37
2022-09-28T07:17:15.702Z,99100.26
2022-09-28T07:18:20.280Z,99096.58
2022-09-28T07:19:24.648Z,99099.45
2022-09-28T07:20:28.941Z,99102.29
2022-09-28T07:21:33.166Z,99100.17
2022-09-28T07:22:44.231Z,99096.48
2022-09-28T07:23:54.827Z,99097.73
2022-09-28T07:25:02.237Z,99102.88
2022-09-28T07:26:09.679Z,99103.2
2022-09-28T07:27:13.929Z,99097.45
2022-09-28T07:28:18.459Z,99101.63
2022-09-28T07:29:22.672Z,99098.9
2022-09-28T07:30:27.114Z,99103.31
2022-09-28T07:31:31.867Z,99100
2022-09-28T07:32:36.121Z,99103.08
2022-09-28T07:33:40.403Z,99101.74
2022-09-28T07:34:44.661Z,99101.63
2022-09-28T07:35:49.038Z,99093
2022-09-28T07:36:53.269Z,99095.27
2022-09-28T07:37:57.525Z,99096.92
2022-09-28T07:39:01.804Z,99094.77
2022-09-28T07:40:06.041Z,99097.77
2022-09-28T07:41:10.457Z,99094.55
2022-09-28T07:42:14.774Z,99094.83
2022-09-28T07:43:20.021Z,99104.18
2022-09-28T07:44:24.252Z,99094.27
2022-09-28T07:45:28.509Z,99096.95
2022-09-28T07:46:32.844Z,99110.45
2022-09-28T07:47:37.142Z,99105
2022-09-28T07:48:41.378Z,99099.45
2022-09-28T07:49:45.641Z,99105.89
2022-09-28T07:50:50.010Z,99109.77
2022-09-28T07:51:54.262Z,99109.93
2022-09-28T07:52:58.500Z,99107.14
2022-09-28T07:54:02.756Z,99116.49
2022-09-28T07:55:08.401Z,99106.63
2022-09-28T07:56:12.681Z,99117.27
2022-09-28T07:57:16.923Z,99120.27
2022-09-28T07:58:21.139Z,99115.56
2022-09-28T07:59:25.448Z,99116.91
2022-09-28T08:00:34.538Z,99111.64
2022-09-28T08:01:38.928Z,99115.05
2022-09-28T08:02:43.559Z,99109.91
2022-09-28T08:03:48.034Z,99110.59
2022-09-28T08:04:52.295Z,99103.45
2022-09-28T08:05:56.534Z,99100.08
2022-09-28T08:07:00.820Z,99110.77
2022-09-28T08:08:05.087Z,99102.58
2022-09-28T08:09:09.341Z,99105.86
2022-09-28T08:10:13.634Z,99102.9
2022-09-28T08:11:18.299Z,99107
2022-09-28T08:12:22.545Z,99099.83
2022-09-28T08:13:28.057Z,99105.48
2022-09-28T08:14:32.299Z,99100.92
2022-09-28T08:15:36.630Z,99103.77
2022-09-28T08:16:40.940Z,99100.61
2022-09-28T08:17:45.194Z,99103.27
2022-09-28T08:18:49.423Z,99104.7
2022-09-28T08:19:53.668Z,99097.2
2022-09-28T08:20:58.164Z,99095.63
2022-09-28T08:22:02.418Z,99094.09
2022-09-28T08:23:06.702Z,99097
2022-09-28T08:24:11.117Z,99100.55
2022-09-28T08:25:15.388Z,99086.34
2022-09-28T08:26:19.666Z,99089.55
2022-09-28T08:27:23.910Z,99085.21
2022-09-28T08:28:28.185Z,99090.16
2022-09-28T08:29:32.431Z,99088.98
2022-09-28T08:30:36.870Z,99087.42
2022-09-28T08:31:41.210Z,99088.75
2022-09-28T08:32:45.472Z,99085.39
2022-09-28T08:33:49.734Z,99082.62
2022-09-28T08:34:54.036Z,99087.56
2022-09-28T08:35:59.278Z,99083.64
2022-09-28T08:37:03.512Z,99083
2022-09-28T08:38:07.743Z,99085.91
2022-09-28T08:39:12.010Z,99084.86
2022-09-28T08:40:16.488Z,99083.41
2022-09-28T08:41:20.867Z,99082.31
2022-09-28T08:42:25.198Z,99079
2022-09-28T08:43:29.422Z,99078.5
2022-09-28T08:44:33.743Z,99078.82
2022-09-28T08:45:38.250Z,99082.08
2022-09-28T08:46:42.646Z,99080.48
2022-09-28T08:47:46.880Z,99082.62
2022-09-28T08:49:24.806Z,99082.92
2022-09-28T08:50:30.092Z,99083.3
2022-09-28T08:51:34.315Z,99080.3
2022-09-28T08:52:38.559Z,99081.55
2022-09-28T08:53:42.800Z,99078.03
2022-09-28T08:54:47.022Z,99082.28
2022-09-28T08:55:51.320Z,99077.42
2022-09-28T08:56:55.622Z,99070.95
2022-09-28T08:57:59.849Z,99074.55
2022-09-28T08:59:04.127Z,99076.91
2022-09-28T09:00:12.054Z,99079.69
2022-09-28T09:01:16.612Z,99073.73
2022-09-28T09:02:21.127Z,99065.61
2022-09-28T09:03:25.568Z,99069.34
2022-09-28T09:04:30.077Z,99063.75
2022-09-28T09:05:34.359Z,99060.91
2022-09-28T09:06:38.584Z,99066.66
2022-09-28T09:07:42.798Z,99066.16
2022-09-28T09:08:47.033Z,99050.13
2022-09-28T09:09:51.274Z,99062.97
2022-09-28T09:10:55.513Z,99054.78
2022-09-28T09:11:59.736Z,99059.05
2022-09-28T09:13:03.997Z,99049.17
2022-09-28T09:14:08.294Z,99046.82
2022-09-28T09:15:12.537Z,99052.25
2022-09-28T09:16:16.829Z,99052.86
2022-09-28T09:17:21.115Z,99057.04
2022-09-28T09:18:25.393Z,99054.2
2022-09-28T09:19:29.747Z,99051.7
2022-09-28T09:20:35.057Z,99053.99
2022-09-28T09:21:39.315Z,99053.59
2022-09-28T09:22:43.581Z,99051.52
2022-09-28T09:23:47.826Z,99057.27
2022-09-28T09:24:52.089Z,99050.59
2022-09-28T09:25:56.338Z,99056.34
2022-09-28T09:27:00.683Z,99044.53
2022-09-28T09:28:04.959Z,99052.95
2022-09-28T09:29:09.210Z,99056.26
2022-09-28T09:30:15.818Z,99051.06
2022-09-28T09:31:24.148Z,99046.8
2022-09-28T09:32:28.553Z,99053.88
2022-09-28T09:33:32.847Z,99051.52
2022-09-28T09:34:37.174Z,99058.09
2022-09-28T09:35:41.442Z,99056.26
2022-09-28T09:36:45.905Z,99050.69
2022-09-28T09:37:50.161Z,99052.05
2022-09-28T09:38:58.520Z,99052.8
2022-09-28T09:40:02.927Z,99054.23
2022-09-28T09:41:07.423Z,99050.39
2022-09-28T09:42:11.955Z,99047.52
2022-09-28T09:43:16.224Z,99051.06
2022-09-28T09:44:20.614Z,99050.02
2022-09-28T09:45:24.920Z,99049.92
2022-09-28T09:46:29.138Z,99046.33
2022-09-28T09:47:33.367Z,99044.98
2022-09-28T09:48:37.657Z,99045.72
2022-09-28T09:49:42.225Z,99042.47
2022-09-28T09:50:46.482Z,99037.77
2022-09-28T09:51:50.735Z,99043.39
2022-09-28T09:52:55.094Z,99039.8
2022-09-28T09:53:59.326Z,99037.12
2022-09-28T09:55:03.740Z,99042.78
2022-09-28T09:56:08.029Z,99039.09
2022-09-28T09:57:12.324Z,99041.8
2022-09-28T09:58:16.624Z,99044.33
2022-09-28T09:59:20.973Z,99048.33
2022-09-28T10:00:25.244Z,99044.44
2022-09-28T10:01:29.567Z,99047.28
2022-09-28T10:02:34.009Z,99050.51
2022-09-28T10:03:38.465Z,99042.49
2022-09-28T10:04:42.712Z,99041.16
2022-09-28T10:05:48.046Z,99046.06
2022-09-28T10:06:52.313Z,99054.2
2022-09-28T10:07:56.569Z,99049.06
2022-09-28T10:09:00.818Z,99046.06
2022-09-28T10:10:05.058Z,99047.14
2022-09-28T10:11:09.336Z,99051.96
2022-09-28T10:12:13.647Z,99051.55
2022-09-28T10:13:19.931Z,99053.53
2022-09-28T10:14:24.675Z,99053.38
2022-09-28T10:15:28.926Z,99049.49
2022-09-28T10:16:33.291Z,99051
2022-09-28T10:17:37.706Z,99041.97
2022-09-28T10:18:41.959Z,99043.31
2022-09-28T10:19:46.274Z,99048.73
2022-09-28T10:20:50.617Z,99042.17
2022-09-28T10:21:54.839Z,99044.44
2022-09-28T10:22:59.071Z,99051.32
2022-09-28T10:24:03.563Z,99049.49
2022-09-28T10:25:07.846Z,99042.67
2022-09-28T10:26:12.137Z,99047.61
2022-09-28T10:27:16.419Z,99047.69
2022-09-28T10:28:20.665Z,99049.87
2022-09-28T10:29:25.351Z,99044.53
2022-09-28T10:30:29.780Z,99043.36
2022-09-28T10:31:34.390Z,99042.95
2022-09-28T10:32:38.661Z,99038.14
2022-09-28T10:33:42.934Z,99036.37
2022-09-28T10:34:51.897Z,99043.48
2022-09-28T10:35:56.164Z,99037.12
2022-09-28T10:37:00.381Z,99034.25
2022-09-28T10:38:04.695Z,99038.45
2022-09-28T10:39:08.973Z,99034.02
2022-09-28T10:40:13.219Z,99037.94
2022-09-28T10:41:17.466Z,99039.67
2022-09-28T10:42:21.735Z,99036.8
2022-09-28T10:43:25.976Z,99033.98
2022-09-28T10:44:30.254Z,99036.89
2022-09-28T10:45:34.479Z,99043.8
2022-09-28T10:46:38.756Z,99039.36
2022-09-28T10:47:42.974Z,99033.69
2022-09-28T10:48:47.242Z,99035.95
2022-09-28T10:49:51.483Z,99033
2022-09-28T10:50:55.720Z,99032.8
2022-09-28T10:51:59.969Z,99036.28
2022-09-28T10:53:04.326Z,99028.99
2022-09-28T10:54:08.545Z,99035.17
2022-09-28T10:55:12.829Z,99039.83
2022-09-28T10:56:17.078Z,99038.6
2022-09-28T10:57:21.355Z,99041.42
2022-09-28T10:58:25.637Z,99035.88
2022-09-28T10:59:29.893Z,99036.19
2022-09-28T11:00:34.189Z,99037.77
2022-09-28T11:01:38.630Z,99033.46
2022-09-28T11:02:43.194Z,99039.77
2022-09-28T11:03:47.535Z,99041.02
2022-09-28T11:04:51.787Z,99035.98
2022-09-28T11:05:56.051Z,99035.38
2022-09-28T11:07:01.492Z,99034.06
2022-09-28T11:08:05.987Z,99036.27
2022-09-28T11:09:10.206Z,99035.98
2022-09-28T11:10:14.565Z,99041.03
2022-09-28T11:11:18.893Z,99040.86
2022-09-28T11:12:23.121Z,99034.49
2022-09-28T11:13:27.388Z,99036.88
2022-09-28T11:14:32.455Z,99034.61
2022-09-28T11:15:40.510Z,99040.88
2022-09-28T11:16:44.965Z,99034.2
2022-09-28T11:17:49.314Z,99036.78
2022-09-28T11:18:53.534Z,99033.18
2022-09-28T11:20:00.817Z,99034.11
2022-09-28T11:21:05.177Z,99041.9
2022-09-28T11:22:15.072Z,99032.55
2022-09-28T11:23:19.367Z,99037.78
2022-09-28T11:24:24.258Z,99033.45
2022-09-28T11:25:29.265Z,99039.49
2022-09-28T11:26:33.569Z,99037.23
2022-09-28T11:27:37.809Z,99031.97
2022-09-28T11:28:42.050Z,99033.39
2022-09-28T11:29:46.306Z,99038.1
2022-09-28T11:30:51.699Z,99038.54
2022-09-28T11:31:56.144Z,99039.03
2022-09-28T11:33:00.395Z,99026.69
2022-09-28T11:34:04.655Z,99037.29
2022-09-28T11:35:08.944Z,99031.54
2022-09-28T11:36:13.204Z,99031.42
2022-09-28T11:37:17.442Z,99040.58
2022-09-28T11:38:21.704Z,99034.8
2022-09-28T11:39:25.926Z,99037.91
2022-09-28T11:40:30.297Z,99038.48
2022-09-28T11:41:34.735Z,99035.41
2022-09-28T11:42:38.998Z,99033.45
2022-09-28T11:43:43.517Z,99033.25
2022-09-28T11:44:47.746Z,99033.14
2022-09-28T11:45:52.226Z,99033.58
2022-09-28T11:46:56.703Z,99032.41
2022-09-28T11:48:00.996Z,99032.64
2022-09-28T11:49:05.268Z,99027.94
2022-09-28T11:50:09.568Z,99039.03
2022-09-28T11:51:14.858Z,99033.52
2022-09-28T11:52:19.107Z,99031.86
2022-09-28T11:53:23.361Z,99032.44
2022-09-28T11:54:27.609Z,99029.97
2022-09-28T11:55:31.867Z,99028.49
2022-09-28T11:56:36.146Z,99023.91
2022-09-28T11:57:40.379Z,99027.07
2022-09-28T11:58:44.594Z,99028.31
2022-09-28T11:59:48.877Z,99023.38
2022-09-28T12:00:53.121Z,99030.29
2022-09-28T12:01:57.786Z,99027.3
2022-09-28T12:03:02.539Z,99027.59
2022-09-28T12:04:07.030Z,99023.98
2022-09-28T12:05:11.251Z,99026.66
2022-09-28T12:06:19.194Z,99026.34
2022-09-28T12:07:23.491Z,99024.39
2022-09-28T12:08:27.740Z,99019.84
2022-09-28T12:09:31.984Z,99022.95
2022-09-28T12:10:36.239Z,99019.95
2022-09-28T12:11:40.472Z,99020.45
2022-09-28T12:12:44.733Z,99020.25
2022-09-28T12:13:48.952Z,99019.72
2022-09-28T12:14:53.201Z,99019.17
2022-09-28T12:17:22.756Z,99022.31
2022-09-28T12:18:27.106Z,99015.31
2022-09-28T12:19:31.407Z,99013.36
2022-09-28T12:20:35.685Z,99017.58
2022-09-28T12:21:39.941Z,99014.27
2022-09-28T12:22:44.187Z,99013.95
2022-09-28T12:23:48.412Z,99005.5
2022-09-28T12:24:52.676Z,99010.75
2022-09-28T12:25:56.962Z,99012.3
2022-09-28T12:27:01.203Z,99007.03
2022-09-28T12:28:05.417Z,99005.67
2022-09-28T12:29:09.678Z,99002.88
2022-09-28T12:30:14.188Z,99002.8
2022-09-28T12:31:18.645Z,99006.11
2022-09-28T12:32:23.305Z,99010.31
2022-09-28T12:33:27.520Z,99009.16
2022-09-28T12:34:31.764Z,99017.9
2022-09-28T12:35:35.981Z,99006.62
2022-09-28T12:36:40.306Z,99010.81
2022-09-28T12:37:44.680Z,99012.76
2022-09-28T12:39:15.084Z,99011.8
2022-09-28T12:40:59.986Z,99010.06
2022-09-28T12:42:04.441Z,99014.33
2022-09-28T12:43:08.727Z,99012.41
2022-09-28T12:44:12.988Z,99009.74